^^
Grace C. Lehan Memorial Weather Station Historical Data
Daily Summary for September 24, 2022 Units:  English    Metric   Both
Daily Weekly Monthly Yearly
  High: Low: Average:
Temperature: 68.5 °F 43.7 °F 56.6 °F
Dew Point: 49.7 °F 38.7 °F 44.3 °F
Humidity: 87% 46.1% 65%
Wind Speed: 4.6mph 0mph 1mph
Wind Gust: 18mph - -
Wind- - WNW
Pressure: 29.95 in 29.83 in -
Precipitation: 0.00 in    
 
 
Tabular Data for September 24, 2022
Time Temperature Dew Point Pressure Wind Wind Speed Wind Gust Humidity Rainfall Rate (Hourly) solar
00:09 49.1 °F 38.7 °F 29.93 in WNW 0.6 mph 9 mph 67.2% 0.00 in 0 W/m2
00:14 49 °F 38.9 °F 29.93 in WNW 2.2 mph 10 mph 67.9% 0.00 in 0 W/m2
00:19 49 °F 38.7 °F 29.93 in NW 0.5 mph 11 mph 67.4% 0.00 in 0 W/m2
00:24 49 °F 38.8 °F 29.94 in NW 0.4 mph 11 mph 67.8% 0.00 in 0 W/m2
00:29 49 °F 38.9 °F 29.94 in NW 0.1 mph 11 mph 68% 0.00 in 0 W/m2
00:34 48.9 °F 38.8 °F 29.94 in WNW 1.5 mph 11 mph 68% 0.00 in 0 W/m2
00:39 48.8 °F 38.8 °F 29.94 in WNW 0.8 mph 9 mph 68.3% 0.00 in 0 W/m2
00:44 48.8 °F 38.8 °F 29.94 in NW 0.2 mph 9 mph 68.3% 0.00 in 0 W/m2
00:49 48.7 °F 39 °F 29.94 in WNW 0.2 mph 9 mph 69% 0.00 in 0 W/m2
00:54 48.6 °F 38.9 °F 29.94 in WNW 1.1 mph 9 mph 69% 0.00 in 0 W/m2
00:59 48.5 °F 38.9 °F 29.94 in WNW 0.5 mph 9 mph 69.1% 0.00 in 0 W/m2
01:04 48.5 °F 39.2 °F 29.95 in WNW 0.3 mph 9 mph 70% 0.00 in 0 W/m2
01:09 48.3 °F 39 °F 29.95 in WNW 2.7 mph 10 mph 70% 0.00 in 0 W/m2
01:14 48.3 °F 39 °F 29.94 in WNW 2 mph 12 mph 70% 0.00 in 0 W/m2
01:19 48.3 °F 39.1 °F 29.94 in WNW 1.2 mph 12 mph 70.3% 0.00 in 0 W/m2
01:24 48.3 °F 39.3 °F 29.94 in West 1.1 mph 12 mph 71% 0.00 in 0 W/m2
01:29 48.2 °F 39.2 °F 29.93 in WNW 1.3 mph 12 mph 71% 0.00 in 0 W/m2
01:34 48.1 °F 39.3 °F 29.93 in West 0.8 mph 12 mph 71.5% 0.00 in 0 W/m2
01:39 48 °F 39.1 °F 29.93 in WNW 0.6 mph 6 mph 71.2% 0.00 in 0 W/m2
01:44 48 °F 39.1 °F 29.94 in NW 1.8 mph 9 mph 71.3% 0.00 in 0 W/m2
01:49 48 °F 39.2 °F 29.93 in WNW 3.6 mph 13 mph 71.2% 0.00 in 0 W/m2
01:54 48.2 °F 39.2 °F 29.93 in NW 2.9 mph 16 mph 71% 0.00 in 0 W/m2
01:59 48.3 °F 39.4 °F 29.93 in NW 0.7 mph 16 mph 71% 0.00 in 0 W/m2
02:04 48.4 °F 39.4 °F 29.93 in NW 1.6 mph 16 mph 71% 0.00 in 0 W/m2
02:09 48.4 °F 39.4 °F 29.93 in NW 0.2 mph 9 mph 71% 0.00 in 0 W/m2
02:14 48.3 °F 39.4 °F 29.93 in Calm   9 mph 71% 0.00 in 0 W/m2
02:19 48.2 °F 39.3 °F 29.93 in Calm   9 mph 71% 0.00 in 0 W/m2
02:24 48.1 °F 39.2 °F 29.92 in Calm   9 mph 71% 0.00 in 0 W/m2
02:29 48 °F 39.2 °F 29.92 in Calm   9 mph 71.5% 0.00 in 0 W/m2
02:34 47.9 °F 39.3 °F 29.91 in Calm   9 mph 72% 0.00 in 0 W/m2
02:39 47.8 °F 39.2 °F 29.91 in Calm     72% 0.00 in 0 W/m2
02:44 47.6 °F 39.1 °F 29.91 in Calm     72.2% 0.00 in 0 W/m2
02:49 47.4 °F 39.2 °F 29.91 in Calm     73.1% 0.00 in 0 W/m2
02:54 47.2 °F 39.2 °F 29.91 in Calm     73.4% 0.00 in 0 W/m2
02:59 47 °F 39.1 °F 29.91 in Calm     73.7% 0.00 in 0 W/m2
03:04 46.8 °F 39.1 °F 29.91 in Calm     74.4% 0.00 in 0 W/m2
03:09 46.6 °F 39.1 °F 29.92 in Calm     75% 0.00 in 0 W/m2
03:14 46.4 °F 38.9 °F 29.92 in Calm     75% 0.00 in 0 W/m2
03:19 46.1 °F 39 °F 29.92 in Calm     76% 0.00 in 0 W/m2
03:24 45.9 °F 38.8 °F 29.92 in Calm     76.2% 0.00 in 0 W/m2
03:29 45.7 °F 38.9 °F 29.92 in Calm     77% 0.00 in 0 W/m2
03:34 45.5 °F 39 °F 29.92 in Calm     78% 0.00 in 0 W/m2
03:39 45.3 °F 39 °F 29.92 in Calm     78.7% 0.00 in 0 W/m2
03:44 45.1 °F 39.1 °F 29.93 in Calm     79.4% 0.00 in 0 W/m2
03:49 44.9 °F 39.1 °F 29.93 in Calm     80% 0.00 in 0 W/m2
03:54 44.7 °F 39 °F 29.93 in Calm     80.4% 0.00 in 0 W/m2
03:59 44.5 °F 39 °F 29.93 in Calm     81% 0.00 in 0 W/m2
04:00 44.4 °F 38.9 °F 29.93 in Calm     81% 0.00 in 0 W/m2
04:09 44.1 °F 39.2 °F 29.93 in Calm     82.7% 0.00 in 0 W/m2
04:14 44 °F 39.2 °F 29.93 in Calm     83% 0.00 in 0 W/m2
04:19 43.9 °F 39.2 °F 29.93 in Calm     83.4% 0.00 in 0 W/m2
04:24 43.8 °F 39.2 °F 29.93 in Calm     84% 0.00 in 0 W/m2
04:29 43.7 °F 39.2 °F 29.93 in Calm     84% 0.00 in 0 W/m2
04:34 43.7 °F 39.2 °F 29.92 in WNW 0.3 mph 6 mph 84% 0.00 in 0 W/m2
04:39 43.9 °F 39.3 °F 29.93 in West 0.1 mph 6 mph 84% 0.00 in 0 W/m2
04:44 44 °F 39.5 °F 29.93 in WNW 0.4 mph 7 mph 84% 0.00 in 0 W/m2
04:49 44.2 °F 39.7 °F 29.93 in Calm   7 mph 83.9% 0.00 in 0 W/m2
04:54 44.5 °F 39.7 °F 29.92 in NW 0.6 mph 7 mph 83% 0.00 in 0 W/m2
04:59 44.9 °F 39.8 °F 29.92 in NW 0.1 mph 7 mph 82.4% 0.00 in 0 W/m2
05:04 45.3 °F 40 °F 29.92 in NW 1.1 mph 8 mph 81.4% 0.00 in 0 W/m2
05:09 45.7 °F 40.1 °F 29.92 in Calm   8 mph 80.4% 0.00 in 0 W/m2
05:14 46 °F 40 °F 29.92 in NW 0.4 mph 8 mph 79.5% 0.00 in 0 W/m2
05:19 46.3 °F 40.1 °F 29.92 in NW 1.3 mph 8 mph 79% 0.00 in 0 W/m2
05:24 46.5 °F 40 °F 29.93 in NNW 1 mph 8 mph 78% 0.00 in 0 W/m2
05:29 46.7 °F 40.2 °F 29.93 in NW 1.6 mph 11 mph 78% 0.00 in 0 W/m2
05:34 46.9 °F 40.2 °F 29.93 in NW 1.4 mph 11 mph 77.4% 0.00 in 0 W/m2
05:39 47.1 °F 40.2 °F 29.92 in NW 0.1 mph 10 mph 76.9% 0.00 in 0 W/m2
05:44 47.2 °F 40 °F 29.93 in NW 0.1 mph 10 mph 76% 0.00 in 0 W/m2
05:49 47.2 °F 40 °F 29.93 in Calm   10 mph 76% 0.00 in 0 W/m2
05:54 47.1 °F 40 °F 29.93 in Calm   10 mph 76% 0.00 in 0 W/m2
05:59 47 °F 40.1 °F 29.94 in NNW 0.4 mph 10 mph 76.8% 0.00 in 0 W/m2
06:04 46.8 °F 40 °F 29.94 in SW 0.1 mph 10 mph 77% 0.00 in 0 W/m2
06:09 46.8 °F 40 °F 29.93 in NNW 0.1 mph 9 mph 77.1% 0.00 in 0 W/m2
06:14 46.7 °F 40 °F 29.94 in NW 0.6 mph 9 mph 77.1% 0.00 in 0 W/m2
06:19 46.8 °F 40 °F 29.94 in NNW 0.9 mph 9 mph 77% 0.00 in 0 W/m2
06:23 46.9 °F 40.1 °F 29.94 in NNW 0.1 mph 9 mph 77% 0.00 in 0 W/m2
06:29 47 °F 40.2 °F 29.94 in Calm   9 mph 77% 0.00 in 0 W/m2
06:34 47.1 °F 40.3 °F 29.94 in Calm   9 mph 77% 0.00 in 0 W/m2
06:39 47.2 °F 40.3 °F 29.93 in NW 0.2 mph 4 mph 77% 0.00 in 0 W/m2
06:44 47.3 °F 40.4 °F 29.94 in NW 0.6 mph 4 mph 77% 0.00 in 0 W/m2
06:49 47.3 °F 40.5 °F 29.94 in NW 0.2 mph 4 mph 76.9% 0.00 in 5 W/m2
06:54 47.4 °F 40.3 °F 29.93 in NNW 0.4 mph 4 mph 76.2% 0.00 in 7 W/m2
06:59 47.5 °F 40.3 °F 29.93 in Calm   4 mph 76% 0.00 in 9 W/m2
07:04 47.6 °F 40.4 °F 29.93 in Calm   4 mph 76% 0.00 in 11 W/m2
07:09 47.6 °F 40.5 °F 29.93 in Calm   2 mph 76% 0.00 in 12 W/m2
07:14 47.7 °F 40.5 °F 29.93 in Calm   2 mph 76% 0.00 in 12 W/m2
07:19 47.7 °F 40.5 °F 29.93 in NNW 0.5 mph 2 mph 76% 0.00 in 14 W/m2
07:24 47.8 °F 40.6 °F 29.93 in Calm   2 mph 76% 0.00 in 16 W/m2
07:29 47.9 °F 40.7 °F 29.93 in Calm   2 mph 76% 0.00 in 19 W/m2
07:34 48.1 °F 40.8 °F 29.93 in Calm   2 mph 75.5% 0.00 in 19 W/m2
07:39 48.3 °F 40.9 °F 29.93 in NNW 0.3 mph 5 mph 75.4% 0.00 in 18 W/m2
07:44 48.5 °F 41 °F 29.93 in Calm   5 mph 75.2% 0.00 in 19 W/m2
07:49 48.7 °F 41.1 °F 29.93 in NNW 0.2 mph 5 mph 75% 0.00 in 19 W/m2
07:54 48.9 °F 41.3 °F 29.93 in NNW 0.9 mph 5 mph 74.8% 0.00 in 21 W/m2
07:59 49.2 °F 41.3 °F 29.93 in WNW 0.4 mph 7 mph 74% 0.00 in 21 W/m2
08:00 49.4 °F 41.5 °F 29.93 in Calm   7 mph 74% 0.00 in 21 W/m2
08:09 49.7 °F 41.7 °F 29.94 in WNW 0.3 mph 3 mph 73.8% 0.00 in 25 W/m2
08:14 49.9 °F 41.6 °F 29.94 in WNW 0.9 mph 6 mph 73% 0.00 in 25 W/m2
08:19 50.2 °F 41.8 °F 29.94 in WNW 2.8 mph 13 mph 72.9% 0.00 in 30 W/m2
08:24 50.4 °F 41.8 °F 29.94 in WNW 2.1 mph 14 mph 72% 0.00 in 32 W/m2
08:29 50.6 °F 41.9 °F 29.94 in West 2.5 mph 14 mph 72% 0.00 in 37 W/m2
08:34 50.8 °F 42.1 °F 29.94 in West 0.4 mph 14 mph 71.9% 0.00 in 42 W/m2
08:39 51 °F 42.2 °F 29.94 in WNW 1.8 mph 15 mph 71.8% 0.00 in 49 W/m2
08:44 51.2 °F 42.2 °F 29.94 in WNW 1 mph 15 mph 71.1% 0.00 in 56 W/m2
08:49 51.5 °F 42.4 °F 29.94 in WNW 0.2 mph 15 mph 71% 0.00 in 63 W/m2
08:54 51.8 °F 42.9 °F 29.94 in WNW 0.3 mph 15 mph 71.5% 0.00 in 72 W/m2
08:59 52.1 °F 43.1 °F 29.94 in NW 0.9 mph 15 mph 71.3% 0.00 in 171 W/m2
09:04 52.5 °F 43.4 °F 29.94 in West 0.8 mph 15 mph 71.2% 0.00 in 457 W/m2
09:09 53.4 °F 43.5 °F 29.94 in WNW 2.7 mph 12 mph 69% 0.00 in 471 W/m2
09:14 54.6 °F 43.9 °F 29.94 in WNW 1.1 mph 12 mph 67.2% 0.00 in 487 W/m2
09:19 55.9 °F 44.6 °F 29.94 in WNW 1.1 mph 12 mph 65.7% 0.00 in 501 W/m2
09:24 57 °F 45 °F 29.94 in WNW 0.9 mph 12 mph 64.3% 0.00 in 517 W/m2
09:29 58.1 °F 45.4 °F 29.94 in WSW 1 mph 12 mph 62.6% 0.00 in 536 W/m2
09:34 58.8 °F 44.8 °F 29.94 in WNW 3.8 mph 12 mph 59.6% 0.00 in 550 W/m2
09:39 59.2 °F 45.3 °F 29.94 in NW 0.7 mph 12 mph 59.8% 0.00 in 554 W/m2
09:44 60 °F 45.9 °F 29.94 in NW 2.1 mph 13 mph 59.6% 0.00 in 566 W/m2
09:49 60.7 °F 45.5 °F 29.94 in NW 0.6 mph 13 mph 57.3% 0.00 in 578 W/m2
09:54 61.3 °F 46.1 °F 29.94 in NW 0.4 mph 13 mph 57.3% 0.00 in 591 W/m2
09:59 61.8 °F 45.1 °F 29.94 in West 3.2 mph 13 mph 54.2% 0.00 in 603 W/m2
10:04 62 °F 45.4 °F 29.94 in West 0.9 mph 13 mph 54.5% 0.00 in 613 W/m2
10:09 62.4 °F 46 °F 29.94 in WNW 2 mph 10 mph 54.8% 0.00 in 624 W/m2
10:14 62.7 °F 45.3 °F 29.93 in NW 3.9 mph 13 mph 52.9% 0.00 in 633 W/m2
10:19 62.8 °F 45.9 °F 29.93 in WNW 1.2 mph 13 mph 54% 0.00 in 649 W/m2
10:24 63.2 °F 46.6 °F 29.93 in West 0.3 mph 13 mph 54.5% 0.00 in 659 W/m2
10:29 64 °F 46.7 °F 29.93 in WNW 2.5 mph 13 mph 53.4% 0.00 in 670 W/m2
10:34 64.5 °F 46.5 °F 29.93 in NW 1.8 mph 13 mph 51.9% 0.00 in 679 W/m2
10:39 64.8 °F 45.9 °F 29.93 in WNW 2.2 mph 15 mph 50.3% 0.00 in 689 W/m2
10:44 64.7 °F 45.6 °F 29.93 in NW 2.5 mph 15 mph 49.9% 0.00 in 700 W/m2
10:49 64.7 °F 45.5 °F 29.93 in NW 2.1 mph 15 mph 49.8% 0.00 in 710 W/m2
10:54 64.8 °F 45.6 °F 29.93 in WNW 2.6 mph 15 mph 49.8% 0.00 in 712 W/m2
10:59 64.9 °F 45.8 °F 29.93 in WNW 0.8 mph 15 mph 50% 0.00 in 726 W/m2
11:04 65.2 °F 46 °F 29.93 in NW 2.9 mph 15 mph 49.9% 0.00 in 707 W/m2
11:09 65.2 °F 45.1 °F 29.93 in WNW 3.3 mph 15 mph 48.2% 0.00 in 722 W/m2
11:14 64.9 °F 44.9 °F 29.93 in West 4 mph 15 mph 48.2% 0.00 in 744 W/m2
11:19 64.7 °F 45.2 °F 29.92 in West 1.7 mph 15 mph 49.1% 0.00 in 751 W/m2
11:24 64.8 °F 44.8 °F 29.93 in West 3.2 mph 18 mph 48.3% 0.00 in 754 W/m2
11:29 64.8 °F 44.5 °F 29.93 in WNW 2.3 mph 18 mph 47.8% 0.00 in 687 W/m2
11:34 64.8 °F 44.7 °F 29.93 in WNW 2.6 mph 18 mph 48.1% 0.00 in 647 W/m2
11:39 64.9 °F 45.7 °F 29.92 in WNW 2.3 mph 13 mph 49.7% 0.00 in 605 W/m2
11:44 65.1 °F 45.4 °F 29.92 in WNW 2.2 mph 13 mph 48.8% 0.00 in 132 W/m2
11:49 65.1 °F 45.2 °F 29.92 in NW 2.3 mph 13 mph 48.5% 0.00 in 155 W/m2
11:54 64.9 °F 45.3 °F 29.91 in WNW 2 mph 13 mph 49% 0.00 in 148 W/m2
11:59 64.8 °F 45.4 °F 29.91 in WNW 3.4 mph 13 mph 49.2% 0.00 in 156 W/m2
12:00 64.7 °F 45.1 °F 29.91 in WNW 2 mph 13 mph 49% 0.00 in 142 W/m2
12:09 64.1 °F 44.2 °F 29.91 in WNW 2.7 mph 9 mph 48.3% 0.00 in 120 W/m2
12:14 64 °F 44.5 °F 29.91 in WNW 2.5 mph 11 mph 49% 0.00 in 251 W/m2
12:19 64 °F 45.1 °F 29.91 in NW 4.6 mph 13 mph 50.2% 0.00 in 459 W/m2
12:24 64.1 °F 44.6 °F 29.91 in West 1.4 mph 13 mph 49.1% 0.00 in 534 W/m2
12:29 64.3 °F 44.9 °F 29.91 in West 2 mph 13 mph 49.2% 0.00 in 446 W/m2
12:34 64.5 °F 45 °F 29.91 in WNW 2.8 mph 13 mph 49.2% 0.00 in 320 W/m2
12:39 64.5 °F 45 °F 29.91 in WNW 1.5 mph 11 mph 49.2% 0.00 in 142 W/m2
12:44 64.5 °F 46.2 °F 29.91 in West 1.6 mph 11 mph 51.4% 0.00 in 185 W/m2
12:49 64.6 °F 46.5 °F 29.90 in West 1.7 mph 11 mph 51.7% 0.00 in 125 W/m2
12:54 64.8 °F 47.4 °F 29.90 in West 1.4 mph 11 mph 53.4% 0.00 in 153 W/m2
12:59 65 °F 47.4 °F 29.90 in WNW 1.1 mph 11 mph 53% 0.00 in 295 W/m2
13:04 65.1 °F 47.3 °F 29.90 in WNW 1.6 mph 11 mph 52.4% 0.00 in 362 W/m2
13:09 65.4 °F 47.6 °F 29.89 in West 1.8 mph 7 mph 52.4% 0.00 in 204 W/m2
13:14 65.6 °F 46.1 °F 29.89 in WNW 3 mph 11 mph 49.3% 0.00 in 121 W/m2
13:19 65.8 °F 46.6 °F 29.89 in West 1.1 mph 11 mph 49.9% 0.00 in 158 W/m2
13:24 66 °F 47.2 °F 29.89 in WNW 2.3 mph 11 mph 50.7% 0.00 in 239 W/m2
13:29 66.1 °F 47 °F 29.89 in WNW 1.6 mph 11 mph 50.1% 0.00 in 54 W/m2
13:34 66.3 °F 47.3 °F 29.89 in WNW 2 mph 11 mph 50.4% 0.00 in 67 W/m2
13:39 66.5 °F 48.2 °F 29.88 in West 1.3 mph 9 mph 51.8% 0.00 in 90 W/m2
13:44 66.7 °F 48.1 °F 29.88 in WNW 1.9 mph 10 mph 51.2% 0.00 in 69 W/m2
13:49 66.8 °F 47.6 °F 29.88 in WNW 0.6 mph 11 mph 50% 0.00 in 54 W/m2
13:54 66.9 °F 47.8 °F 29.88 in WNW 1.9 mph 11 mph 50.2% 0.00 in 60 W/m2
13:59 66.9 °F 47 °F 29.88 in WNW 2.6 mph 14 mph 48.7% 0.00 in 72 W/m2
14:04 66.8 °F 47.1 °F 29.87 in West 2.8 mph 14 mph 49% 0.00 in 58 W/m2
14:09 66.8 °F 47 °F 29.87 in West 1.5 mph 9 mph 49% 0.00 in 65 W/m2
14:14 66.8 °F 47.4 °F 29.87 in WNW 2.8 mph 10 mph 49.6% 0.00 in 69 W/m2
14:19 67 °F 46.9 °F 29.86 in WNW 0.9 mph 10 mph 48.3% 0.00 in 63 W/m2
14:24 67.2 °F 47.2 °F 29.86 in NW 1.7 mph 10 mph 48.7% 0.00 in 58 W/m2
14:29 67.3 °F 47.4 °F 29.86 in WNW 2.7 mph 12 mph 48.8% 0.00 in 151 W/m2
14:34 67.5 °F 46.9 °F 29.86 in WNW 2.9 mph 12 mph 47.7% 0.00 in 151 W/m2
14:39 67.8 °F 47.1 °F 29.86 in NW 4.1 mph 13 mph 47.5% 0.00 in 69 W/m2
14:44 67.9 °F 46.5 °F 29.86 in WNW 4 mph 13 mph 46.1% 0.00 in 345 W/m2
14:49 68.1 °F 46.8 °F 29.86 in West 4 mph 14 mph 46.3% 0.00 in 151 W/m2
14:54 68.3 °F 47.6 °F 29.86 in WNW 2.6 mph 14 mph 47.5% 0.00 in 49 W/m2
14:59 68.4 °F 47.8 °F 29.85 in West 2.6 mph 14 mph 47.6% 0.00 in 67 W/m2
15:04 68.3 °F 47.8 °F 29.85 in WNW 2.7 mph 14 mph 47.9% 0.00 in 81 W/m2
15:07 68.2 °F 47.9 °F 29.85 in West 2.7 mph 11 mph 48.3% 0.00 in 81 W/m2
15:30 68.5 °F 48.6 °F 29.84 in WNW 2 mph 11 mph 49% 0.00 in 106 W/m2
16:04 68 °F 48.4 °F 29.84 in WNW 0.2 mph 2 mph 49.5% 0.00 in 56 W/m2
16:09 67.8 °F 48.1 °F 29.84 in WNW 2.6 mph 11 mph 49.3% 0.00 in 60 W/m2
16:14 67.7 °F 48.8 °F 29.84 in West 2.4 mph 13 mph 50.8% 0.00 in 58 W/m2
16:19 67.7 °F 48.5 °F 29.84 in WNW 2.2 mph 13 mph 50.2% 0.00 in 58 W/m2
16:24 67.7 °F 48.8 °F 29.83 in WNW 1.6 mph 13 mph 50.7% 0.00 in 69 W/m2
16:29 67.8 °F 49.7 °F 29.84 in WNW 0.2 mph 13 mph 52.3% 0.00 in 76 W/m2
16:34 67.9 °F 49.7 °F 29.83 in West 1.8 mph 13 mph 52.1% 0.00 in 81 W/m2
16:39 68 °F 49.1 °F 29.83 in WNW 1.7 mph 7 mph 50.8% 0.00 in 83 W/m2
16:44 68 °F 48.7 °F 29.83 in West 2.1 mph 10 mph 50.1% 0.00 in 84 W/m2
16:49 68 °F 49.3 °F 29.83 in WNW 2 mph 12 mph 51.2% 0.00 in 88 W/m2
16:54 68.1 °F 48.7 °F 29.83 in West 1.7 mph 12 mph 49.9% 0.00 in 90 W/m2
16:59 68 °F 48.4 °F 29.83 in WNW 2.5 mph 12 mph 49.3% 0.00 in 88 W/m2
17:04 68 °F 48.7 °F 29.83 in WNW 1 mph 12 mph 50.1% 0.00 in 83 W/m2
17:09 67.9 °F 48.9 °F 29.83 in West 1.6 mph 8 mph 50.5% 0.00 in 79 W/m2
17:14 67.9 °F 49 °F 29.83 in WSW 1.6 mph 8 mph 50.7% 0.00 in 79 W/m2
17:19 67.8 °F 48.7 °F 29.83 in West 1.3 mph 8 mph 50.3% 0.00 in 72 W/m2
17:24 67.6 °F 48.8 °F 29.83 in West 1.8 mph 8 mph 50.9% 0.00 in 63 W/m2
17:29 67.5 °F 48.2 °F 29.83 in West 1.2 mph 8 mph 50% 0.00 in 54 W/m2
17:34 67.3 °F 48.2 °F 29.83 in West 1 mph 9 mph 50.4% 0.00 in 49 W/m2
17:39 67.1 °F 48.2 °F 29.83 in WNW 0.7 mph 9 mph 50.7% 0.00 in 39 W/m2
17:44 66.8 °F 48.2 °F 29.83 in WNW 1.2 mph 9 mph 51.2% 0.00 in 35 W/m2
17:49 66.6 °F 48.1 °F 29.83 in West 3.1 mph 13 mph 51.3% 0.00 in 33 W/m2
17:54 66.4 °F 47.7 °F 29.83 in WNW 2.1 mph 13 mph 51% 0.00 in 33 W/m2
17:59 66.2 °F 48.2 °F 29.83 in WNW 1.2 mph 13 mph 52.3% 0.00 in 30 W/m2
18:04 65.9 °F 48.4 °F 29.83 in WNW 0.4 mph 13 mph 53.2% 0.00 in 26 W/m2
18:09 65.7 °F 48.6 °F 29.83 in WNW 0.1 mph 2 mph 53.8% 0.00 in 23 W/m2
18:14 65.5 °F 48.6 °F 29.83 in WNW 0.4 mph 4 mph 54.3% 0.00 in 18 W/m2
18:19 65.3 °F 48.3 °F 29.83 in WNW 0.2 mph 4 mph 54% 0.00 in 14 W/m2
18:24 65.2 °F 48.2 °F 29.83 in WNW 0.1 mph 4 mph 54.2% 0.00 in 12 W/m2
18:29 65 °F 48.5 °F 29.83 in WNW 0.1 mph 4 mph 55.2% 0.00 in 11 W/m2
18:34 64.8 °F 48.5 °F 29.83 in WNW 0.1 mph 4 mph 55.5% 0.00 in 7 W/m2
18:39 64.5 °F 48.5 °F 29.83 in Calm   1 mph 56% 0.00 in 5 W/m2
18:44 64.3 °F 48.5 °F 29.83 in Calm   1 mph 56.4% 0.00 in 0 W/m2
18:49 64.1 °F 49 °F 29.83 in Calm   1 mph 58% 0.00 in 0 W/m2
18:54 63.8 °F 48.6 °F 29.83 in Calm   1 mph 57.7% 0.00 in 0 W/m2
18:59 63.6 °F 48.3 °F 29.83 in Calm   1 mph 57.5% 0.00 in 0 W/m2
19:04 63.3 °F 48.4 °F 29.83 in Calm   1 mph 58.3% 0.00 in 0 W/m2
19:09 63 °F 48.6 °F 29.83 in Calm     59.2% 0.00 in 0 W/m2
19:14 62.7 °F 48.6 °F 29.83 in Calm     60.1% 0.00 in 0 W/m2
19:19 62.3 °F 48.8 °F 29.83 in Calm     61.2% 0.00 in 0 W/m2
19:24 61.9 °F 48.9 °F 29.84 in Calm     62.2% 0.00 in 0 W/m2
19:29 61.5 °F 48.7 °F 29.84 in Calm     62.9% 0.00 in 0 W/m2
19:34 61.1 °F 48.7 °F 29.83 in Calm     63.6% 0.00 in 0 W/m2
19:39 60.8 °F 48.9 °F 29.83 in Calm     64.8% 0.00 in 0 W/m2
19:44 60.5 °F 48.9 °F 29.84 in Calm     65.7% 0.00 in 0 W/m2
19:49 60.1 °F 49.2 °F 29.84 in Calm     67.2% 0.00 in 0 W/m2
19:54 59.7 °F 49.2 °F 29.84 in Calm     68.1% 0.00 in 0 W/m2
19:59 59.4 °F 49.3 °F 29.84 in Calm     69% 0.00 in 0 W/m2
20:04 58.9 °F 49.5 °F 29.84 in Calm     71% 0.00 in 0 W/m2
20:09 58.6 °F 49.5 °F 29.84 in Calm     71.5% 0.00 in 0 W/m2
20:14 58.2 °F 49.3 °F 29.84 in Calm     72.2% 0.00 in 0 W/m2
20:19 57.8 °F 49.3 °F 29.84 in Calm     73.1% 0.00 in 0 W/m2
20:24 57.5 °F 49.3 °F 29.84 in Calm     74% 0.00 in 0 W/m2
20:29 57.2 °F 49.1 °F 29.84 in Calm     74.3% 0.00 in 0 W/m2
20:34 57 °F 49.1 °F 29.84 in Calm     75% 0.00 in 0 W/m2
20:39 56.7 °F 49.3 °F 29.84 in Calm     76% 0.00 in 0 W/m2
20:44 56.5 °F 49.4 °F 29.85 in Calm     77% 0.00 in 0 W/m2
20:49 56.2 °F 49.4 °F 29.85 in Calm     77.7% 0.00 in 0 W/m2
20:54 56 °F 49.4 °F 29.84 in Calm     78.3% 0.00 in 0 W/m2
20:59 55.8 °F 49.4 °F 29.84 in Calm     79% 0.00 in 0 W/m2
21:04 55.6 °F 49.4 °F 29.84 in Calm     79.6% 0.00 in 0 W/m2
21:09 55.4 °F 49.1 °F 29.84 in Calm     79.3% 0.00 in 0 W/m2
21:14 55.4 °F 49.3 °F 29.84 in Calm     80.1% 0.00 in 0 W/m2
21:19 55.3 °F 49.6 °F 29.84 in Calm     81% 0.00 in 0 W/m2
21:24 55.2 °F 49.5 °F 29.84 in Calm     81% 0.00 in 0 W/m2
21:29 55.1 °F 49.4 °F 29.84 in Calm     81.1% 0.00 in 0 W/m2
21:34 55 °F 49.6 °F 29.84 in Calm     82% 0.00 in 0 W/m2
21:39 54.8 °F 49.5 °F 29.84 in Calm     82% 0.00 in 0 W/m2
21:44 54.7 °F 49.3 °F 29.84 in Calm     82% 0.00 in 0 W/m2
21:49 54.6 °F 49.2 °F 29.83 in Calm     82% 0.00 in 0 W/m2
21:54 54.4 °F 49.3 °F 29.83 in Calm     82.8% 0.00 in 0 W/m2
21:59 54.3 °F 49.3 °F 29.83 in Calm     83% 0.00 in 0 W/m2
22:01 54.2 °F 49.2 °F 29.83 in Calm     83% 0.00 in 0 W/m2
22:30 53.1 °F 49 °F 29.85 in Calm     86% 0.00 in 0 W/m2
23:00 52.5 °F 48.8 °F 29.85 in Calm     87% 0.00 in 0 W/m2
23:30 53.2 °F 48.8 °F 29.85 in Calm     85% 0.00 in 0 W/m2
Hartford County Weather
Compliments of Weather Underground - 4 mb